Time;durP1;ratioP1;P1;durP2;ratioP2;P2;SDS_P1;SDS_P2;PMS_P1;PMS_P2;Temp;Humidity;BMP_temperature;BMP_pressure;BME280_temperature;BME280_humidity;BME280_pressure;Samples;Min_cycle;Max_cycle;Signal;HPM_P1;HPM_P2
2022/01/13 00:00:06;;;;;;;2.37;2.37;;;16.30;65.80;;;;;;5067217;28;44021;-69
2022/01/13 00:02:36;;;;;;;2.80;2.80;;;16.30;66.10;;;;;;5062142;28;44003;-68
2022/01/13 00:05:05;;;;;;;2.97;2.87;;;16.40;65.90;;;;;;5069232;28;43924;-70
2022/01/13 00:07:36;;;;;;;2.77;2.67;;;16.50;65.40;;;;;;5062164;28;44038;-68
2022/01/13 00:10:05;;;;;;;2.70;2.70;;;16.70;65.00;;;;;;5068727;28;43917;-68
2022/01/13 00:12:38;;;;;;;2.60;2.60;;;16.80;64.60;;;;;;5068496;28;44035;-68
2022/01/13 00:15:21;;;;;;;2.77;2.67;;;16.80;64.30;;;;;;5069271;28;43919;-68
2022/01/13 00:18:02;;;;;;;2.80;2.70;;;16.80;64.30;;;;;;5069543;28;43770;-68
2022/01/13 00:20:47;;;;;;;2.80;2.70;;;16.70;64.50;;;;;;5068794;28;43618;-68
2022/01/13 00:26:03;;;;;;;2.73;2.73;;;16.60;64.80;;;;;;5060222;28;43944;-68
2022/01/13 00:28:30;;;;;;;2.60;2.60;;;16.50;65.00;;;;;;5068709;28;43597;-68
2022/01/13 00:30:59;;;;;;;2.60;2.60;;;16.50;65.10;;;;;;5066755;28;46017;-68
2022/01/13 00:33:27;;;;;;;2.33;2.33;;;16.50;65.20;;;;;;5068258;28;43973;-68
2022/01/13 00:35:56;;;;;;;2.80;2.70;;;16.40;65.20;;;;;;5068495;28;43888;-68
2022/01/13 00:38:25;;;;;;;3.10;3.00;;;16.40;65.30;;;;;;5068459;28;44016;-68
2022/01/13 00:40:53;;;;;;;2.90;2.80;;;16.40;65.40;;;;;;5066725;28;46085;-68
2022/01/13 00:43:21;;;;;;;2.70;2.60;;;16.40;65.70;;;;;;5068198;28;43821;-68
2022/01/13 00:45:49;;;;;;;2.47;2.47;;;16.50;65.50;;;;;;5068116;28;44143;-68
2022/01/13 00:48:18;;;;;;;2.80;2.80;;;16.50;65.00;;;;;;5067128;28;44111;-68
2022/01/13 00:50:46;;;;;;;2.53;2.53;;;16.50;64.80;;;;;;5068031;28;43926;-68
2022/01/13 00:53:14;;;;;;;2.80;2.70;;;16.50;64.80;;;;;;5068033;28;43406;-68
2022/01/13 00:55:48;;;;;;;2.73;2.70;;;16.50;64.90;;;;;;5066822;28;43967;-68
2022/01/13 00:58:17;;;;;;;2.40;2.40;;;16.50;65.10;;;;;;5068401;28;44032;-69
2022/01/13 01:00:45;;;;;;;2.87;2.77;;;16.40;65.10;;;;;;5067731;28;44030;-68
2022/01/13 01:03:13;;;;;;;2.47;2.40;;;16.40;65.30;;;;;;5067957;28;43439;-68
2022/01/13 01:05:41;;;;;;;2.90;2.80;;;16.30;65.30;;;;;;5067949;28;44081;-69
2022/01/13 01:08:10;;;;;;;2.60;2.60;;;16.30;65.40;;;;;;5066604;28;43960;-68
2022/01/13 01:10:39;;;;;;;2.60;2.60;;;16.30;65.60;;;;;;5066416;28;45316;-68
2022/01/13 01:13:13;;;;;;;2.60;2.60;;;16.30;65.70;;;;;;5067767;28;44031;-68
2022/01/13 01:15:46;;;;;;;2.60;2.60;;;16.30;65.80;;;;;;5066453;28;44024;-68
2022/01/13 01:18:25;;;;;;;2.70;2.60;;;16.30;65.80;;;;;;5066644;28;43940;-68
2022/01/13 01:21:15;;;;;;;2.63;2.63;;;16.30;65.80;;;;;;5067746;28;44013;-68
2022/01/13 01:23:58;;;;;;;2.63;2.53;;;16.30;66.00;;;;;;5067378;28;43916;-68
2022/01/13 01:26:34;;;;;;;2.47;2.47;;;16.40;65.90;;;;;;5067684;28;43929;-68
2022/01/13 01:29:13;;;;;;;2.50;2.50;;;16.50;65.30;;;;;;5068257;28;43884;-69
2022/01/13 01:31:46;;;;;;;2.70;2.70;;;16.60;64.80;;;;;;5067560;28;44044;-68
2022/01/13 01:34:25;;;;;;;2.50;2.50;;;16.70;64.50;;;;;;5066335;28;45553;-68
2022/01/13 01:36:54;;;;;;;2.40;2.40;;;16.70;64.40;;;;;;5067602;28;43488;-68
2022/01/13 01:39:22;;;;;;;2.70;2.70;;;16.70;64.50;;;;;;5067259;28;44571;-68
2022/01/13 01:41:52;;;;;;;2.80;2.70;;;16.60;64.70;;;;;;5067143;28;44003;-68
2022/01/13 01:44:25;;;;;;;2.53;2.53;;;16.60;64.80;;;;;;5066808;28;43989;-68
2022/01/13 01:46:53;;;;;;;3.00;2.90;;;16.50;64.80;;;;;;5067415;28;43936;-68
2022/01/13 01:49:23;;;;;;;2.60;2.60;;;16.50;65.00;;;;;;5067384;28;43807;-68
2022/01/13 01:51:52;;;;;;;2.57;2.57;;;16.40;65.10;;;;;;5060669;28;45271;-68
2022/01/13 01:54:22;;;;;;;2.40;2.40;;;16.40;65.20;;;;;;5060537;28;43873;-68
2022/01/13 01:56:50;;;;;;;2.50;2.50;;;16.30;65.20;;;;;;5060985;28;43414;-69
2022/01/13 01:59:20;;;;;;;2.67;2.67;;;16.30;65.30;;;;;;5067259;28;44140;-69
2022/01/13 02:01:50;;;;;;;2.57;2.57;;;16.30;65.50;;;;;;5067204;28;43890;-68
2022/01/13 02:04:19;;;;;;;2.50;2.40;;;16.30;65.70;;;;;;5066873;28;43402;-68
2022/01/13 02:06:47;;;;;;;2.50;2.50;;;16.40;65.50;;;;;;5065164;28;43974;-69
2022/01/13 02:09:16;;;;;;;2.70;2.60;;;16.40;65.10;;;;;;5067275;28;43935;-69
2022/01/13 02:11:47;;;;;;;2.47;2.47;;;16.40;64.90;;;;;;5067433;28;44451;-68
2022/01/13 02:14:32;;;;;;;2.40;2.40;;;16.40;65.00;;;;;;5066764;28;43998;-68
2022/01/13 02:17:04;;;;;;;2.50;2.50;;;16.40;65.10;;;;;;5066848;28;44023;-69
2022/01/13 02:19:32;;;;;;;2.43;2.43;;;16.40;65.20;;;;;;5067188;28;43429;-68
2022/01/13 02:22:01;;;;;;;3.00;2.90;;;16.30;65.30;;;;;;5065282;28;47355;-68
2022/01/13 02:24:29;;;;;;;2.40;2.30;;;16.30;65.40;;;;;;5066922;28;44467;-68
2022/01/13 02:26:57;;;;;;;2.50;2.50;;;16.30;65.50;;;;;;5066902;28;43748;-69
2022/01/13 02:29:25;;;;;;;2.43;2.43;;;16.30;65.60;;;;;;5066707;28;43878;-68
2022/01/13 02:31:53;;;;;;;2.20;2.20;;;16.30;65.60;;;;;;5066398;28;44938;-68
2022/01/13 02:34:21;;;;;;;2.40;2.40;;;16.30;65.70;;;;;;5066430;28;43794;-68
2022/01/13 02:36:50;;;;;;;1.97;1.97;;;16.20;65.60;;;;;;5065253;28;43858;-69
2022/01/13 02:39:20;;;;;;;2.50;2.50;;;16.30;66.40;;;;;;5066778;28;44081;-68
2022/01/13 02:41:48;;;;;;;2.50;2.50;;;16.30;65.70;;;;;;5064995;28;46078;-68
2022/01/13 02:44:19;;;;;;;2.60;2.60;;;16.30;66.50;;;;;;5066141;28;43487;-68
2022/01/13 02:49:58;;;;;;;2.23;2.23;;;16.50;65.40;;;;;;5064233;28;44026;-68
2022/01/13 02:52:26;;;;;;;2.30;2.30;;;16.60;64.80;;;;;;5069979;28;44131;-68
2022/01/13 02:54:55;;;;;;;2.30;2.30;;;16.70;64.40;;;;;;5070085;28;43964;-69
2022/01/13 02:57:25;;;;;;;2.53;2.43;;;16.70;64.10;;;;;;5070284;28;43845;-69
2022/01/13 02:59:53;;;;;;;2.37;2.30;;;16.70;64.90;;;;;;5068614;28;44201;-69
2022/01/13 03:02:28;;;;;;;2.23;2.23;;;16.60;64.40;;;;;;5069547;28;43967;-68
2022/01/13 03:04:56;;;;;;;2.57;2.57;;;16.60;64.60;;;;;;5069906;28;43890;-68
2022/01/13 03:07:25;;;;;;;2.20;2.20;;;16.50;64.80;;;;;;5069516;28;44019;-68
2022/01/13 03:09:54;;;;;;;2.30;2.30;;;16.40;64.90;;;;;;5069987;28;43746;-68
2022/01/13 03:12:25;;;;;;;2.60;2.50;;;16.40;65.10;;;;;;5061657;28;47317;-68
2022/01/13 03:14:53;;;;;;;2.20;2.20;;;16.30;65.20;;;;;;5063390;28;44247;-67
2022/01/13 03:17:20;;;;;;;2.33;2.33;;;16.30;65.40;;;;;;5069579;28;43869;-68
2022/01/13 03:19:48;;;;;;;2.03;2.03;;;16.30;65.40;;;;;;5069836;28;44251;-69
2022/01/13 03:22:17;;;;;;;2.30;2.30;;;16.30;65.60;;;;;;5069342;28;43956;-68
2022/01/13 03:24:45;;;;;;;2.20;2.20;;;16.30;65.80;;;;;;5069383;28;43995;-68
2022/01/13 03:27:19;;;;;;;2.23;2.23;;;16.30;65.70;;;;;;5069350;28;43976;-67
2022/01/13 03:29:47;;;;;;;2.37;2.37;;;16.40;65.30;;;;;;5069795;28;43374;-68
2022/01/13 03:32:16;;;;;;;2.10;2.10;;;16.40;65.00;;;;;;5069229;28;44042;-68
2022/01/13 03:34:44;;;;;;;2.20;2.20;;;16.40;65.10;;;;;;5069500;28;43903;-69
2022/01/13 03:37:12;;;;;;;2.20;2.20;;;16.40;65.10;;;;;;5069482;28;44029;-68
2022/01/13 03:39:40;;;;;;;2.23;2.23;;;16.40;65.30;;;;;;5069633;28;43947;-67
2022/01/13 03:42:08;;;;;;;2.37;2.37;;;16.40;65.30;;;;;;5069327;28;44815;-67
2022/01/13 03:44:37;;;;;;;2.50;2.50;;;16.30;65.40;;;;;;5069144;28;44038;-68
2022/01/13 03:47:06;;;;;;;2.30;2.30;;;16.30;65.40;;;;;;5069246;28;43981;-68
2022/01/13 03:49:34;;;;;;;2.23;2.23;;;16.30;65.40;;;;;;5069365;28;44009;-68
2022/01/13 03:52:46;;;;;;;2.10;2.10;;;16.30;65.40;;;;;;5068919;28;43983;-69
2022/01/13 03:55:51;;;;;;;2.20;2.20;;;16.30;65.60;;;;;;5068951;28;43872;-68
2022/01/13 03:58:52;;;;;;;2.03;2.03;;;16.30;66.20;;;;;;5069303;28;44022;-68
2022/01/13 04:01:52;;;;;;;2.30;2.30;;;16.30;65.50;;;;;;5069192;28;44098;-68
2022/01/13 04:04:20;;;;;;;1.97;1.97;;;16.30;65.60;;;;;;5068741;28;43967;-68
2022/01/13 04:06:48;;;;;;;2.20;2.20;;;16.30;65.60;;;;;;5068260;28;44118;-68
2022/01/13 04:09:37;;;;;;;2.00;2.00;;;16.50;65.30;;;;;;5068886;28;43962;-68
2022/01/13 04:12:07;;;;;;;2.77;2.67;;;16.60;64.80;;;;;;5068301;28;43964;-68
2022/01/13 04:14:58;;;;;;;2.17;2.17;;;16.70;64.40;;;;;;5068430;28;44026;-68
2022/01/13 04:17:27;;;;;;;2.37;2.37;;;16.80;64.10;;;;;;5068652;28;44150;-68
2022/01/13 04:19:56;;;;;;;2.20;2.20;;;16.80;64.00;;;;;;5067200;28;43950;-68
2022/01/13 04:22:25;;;;;;;2.30;2.30;;;16.70;64.10;;;;;;5068928;28;43963;-69
2022/01/13 04:24:53;;;;;;;2.10;2.10;;;16.60;64.20;;;;;;5068536;28;43947;-69
2022/01/13 04:27:23;;;;;;;2.30;2.30;;;16.60;64.50;;;;;;5068388;28;43805;-68
2022/01/13 04:30:11;;;;;;;1.90;1.90;;;16.50;64.60;;;;;;5066982;28;44025;-68
2022/01/13 04:32:40;;;;;;;2.07;2.07;;;16.50;64.80;;;;;;5069113;28;44030;-68
2022/01/13 04:35:10;;;;;;;2.23;2.23;;;16.40;64.90;;;;;;5068275;28;43864;-68
2022/01/13 04:37:38;;;;;;;2.00;2.00;;;16.40;65.10;;;;;;5067080;28;45035;-68
2022/01/13 04:40:08;;;;;;;2.00;2.00;;;16.40;65.30;;;;;;5067133;28;44174;-68
2022/01/13 04:42:37;;;;;;;2.33;2.33;;;16.30;65.30;;;;;;5069033;28;43934;-67
2022/01/13 04:45:06;;;;;;;1.90;1.90;;;16.30;65.40;;;;;;5066504;28;44301;-69
2022/01/13 04:47:34;;;;;;;2.00;2.00;;;16.40;65.50;;;;;;5067052;28;45943;-67
2022/01/13 04:50:04;;;;;;;1.93;1.93;;;16.50;65.20;;;;;;5066774;28;44002;-68
2022/01/13 04:52:32;;;;;;;1.97;1.97;;;16.50;64.90;;;;;;5068659;28;43978;-69
2022/01/13 04:55:07;;;;;;;2.23;2.20;;;16.50;64.80;;;;;;5068098;28;43751;-69
2022/01/13 04:57:35;;;;;;;2.30;2.30;;;16.50;64.90;;;;;;5068490;28;43392;-68
2022/01/13 05:00:04;;;;;;;3.20;2.90;;;16.50;65.00;;;;;;5066584;28;43995;-68
2022/01/13 05:02:35;;;;;;;4.67;3.13;;;16.40;65.00;;;;;;5068869;28;43339;-69
2022/01/13 05:05:05;;;;;;;3.27;3.03;;;16.40;65.10;;;;;;5067643;28;44132;-68
2022/01/13 05:07:33;;;;;;;3.60;3.40;;;16.40;65.30;;;;;;5066933;28;43826;-68
2022/01/13 05:10:01;;;;;;;4.00;3.60;;;16.30;65.20;;;;;;5067947;28;43981;-69
2022/01/13 05:12:34;;;;;;;3.57;3.27;;;16.30;66.10;;;;;;5067706;28;44037;-68
2022/01/13 05:15:04;;;;;;;4.07;3.57;;;16.30;65.40;;;;;;5067685;28;43999;-68
2022/01/13 05:17:59;;;;;;;3.20;3.00;;;16.30;65.50;;;;;;5067527;28;44018;-68
2022/01/13 05:20:37;;;;;;;3.37;3.17;;;16.30;65.50;;;;;;5067832;28;43956;-68
2022/01/13 05:23:07;;;;;;;4.43;3.57;;;16.30;65.60;;;;;;5068430;28;43747;-68
2022/01/13 05:25:34;;;;;;;3.63;3.33;;;16.20;65.70;;;;;;5067326;28;43928;-68
2022/01/13 05:28:02;;;;;;;4.10;3.67;;;16.30;65.80;;;;;;5067529;28;44132;-68
2022/01/13 05:30:30;;;;;;;4.63;3.93;;;16.40;65.50;;;;;;5067605;28;43864;-69
2022/01/13 05:32:58;;;;;;;4.53;3.70;;;16.50;65.10;;;;;;5067860;28;43976;-69
2022/01/13 05:35:28;;;;;;;3.77;3.47;;;16.60;64.60;;;;;;5067093;28;44010;-68
2022/01/13 05:37:56;;;;;;;3.97;3.67;;;16.70;64.40;;;;;;5065912;28;45087;-68
2022/01/13 05:40:24;;;;;;;5.43;3.87;;;16.60;64.10;;;;;;5067407;28;44011;-68
2022/01/13 05:42:51;;;;;;;4.20;3.77;;;16.60;64.30;;;;;;5067777;28;43921;-68
2022/01/13 05:45:21;;;;;;;5.93;4.00;;;16.50;64.50;;;;;;5066825;28;43952;-68
2022/01/13 05:47:50;;;;;;;4.17;3.77;;;16.50;64.80;;;;;;5066830;28;43977;-68
2022/01/13 05:50:19;;;;;;;4.40;3.93;;;16.50;65.00;;;;;;5067187;28;43953;-68
2022/01/13 05:52:49;;;;;;;4.70;4.30;;;16.40;65.10;;;;;;5067550;28;44181;-68
2022/01/13 05:55:17;;;;;;;4.30;3.90;;;16.40;65.20;;;;;;5065542;28;45801;-68
2022/01/13 05:57:45;;;;;;;5.37;4.60;;;16.30;65.30;;;;;;5065445;28;46243;-68
2022/01/13 06:00:15;;;;;;;4.10;3.73;;;16.30;66.10;;;;;;5067050;28;43916;-68
2022/01/13 06:02:43;;;;;;;4.43;4.03;;;16.30;65.40;;;;;;5067545;28;43946;-68
2022/01/13 06:05:11;;;;;;;4.20;3.80;;;16.30;65.40;;;;;;5065474;28;46086;-68
2022/01/13 06:07:39;;;;;;;4.23;3.77;;;16.30;65.70;;;;;;5066708;28;44016;-68
2022/01/13 06:10:10;;;;;;;4.20;3.70;;;16.40;65.60;;;;;;5067137;28;44042;-68
2022/01/13 06:12:38;;;;;;;4.00;3.63;;;16.40;65.00;;;;;;5067595;28;43972;-69
2022/01/13 06:15:07;;;;;;;5.93;3.87;;;16.40;64.80;;;;;;5065303;28;45405;-69
2022/01/13 06:17:35;;;;;;;3.77;3.47;;;16.40;64.80;;;;;;5066537;28;43443;-68
2022/01/13 06:20:04;;;;;;;3.83;3.57;;;16.40;64.90;;;;;;5066822;28;43927;-69
2022/01/13 06:22:32;;;;;;;4.50;4.10;;;16.40;65.00;;;;;;5066870;28;43932;-68
2022/01/13 06:24:59;;;;;;;3.80;3.50;;;16.40;65.10;;;;;;5064373;28;46850;-69
2022/01/13 06:27:29;;;;;;;5.10;4.17;;;16.30;65.20;;;;;;5066384;28;43339;-68
2022/01/13 06:29:57;;;;;;;4.00;3.70;;;16.30;65.30;;;;;;5066734;28;44020;-68
2022/01/13 06:32:25;;;;;;;4.70;4.30;;;16.30;65.40;;;;;;5066983;28;43578;-68
2022/01/13 06:34:53;;;;;;;4.07;3.77;;;16.30;65.50;;;;;;5066544;28;43915;-68
2022/01/13 06:37:21;;;;;;;4.17;3.77;;;16.20;65.50;;;;;;5066386;28;43919;-69
2022/01/13 06:39:48;;;;;;;5.83;4.30;;;16.20;65.60;;;;;;5066231;28;43907;-68
2022/01/13 06:42:17;;;;;;;3.97;3.67;;;16.20;65.70;;;;;;5066858;28;43613;-68
2022/01/13 06:44:46;;;;;;;3.97;3.67;;;16.20;65.70;;;;;;5065983;28;44078;-68
2022/01/13 06:47:14;;;;;;;4.40;4.00;;;16.20;65.90;;;;;;5066091;28;43990;-68
2022/01/13 06:49:43;;;;;;;3.80;3.60;;;16.30;65.90;;;;;;5066171;28;43862;-68
2022/01/13 06:52:13;;;;;;;4.30;3.90;;;16.40;65.40;;;;;;5066618;28;43902;-67
2022/01/13 06:54:41;;;;;;;4.13;3.80;;;16.50;65.00;;;;;;5066353;28;44934;-69
2022/01/13 06:57:09;;;;;;;4.53;4.23;;;16.60;64.60;;;;;;5065991;28;44098;-68
2022/01/13 06:59:37;;;;;;;4.40;4.00;;;16.60;64.30;;;;;;5066607;28;43927;-68
2022/01/13 07:02:06;;;;;;;3.67;3.40;;;16.60;64.30;;;;;;5066778;28;43989;-68
2022/01/13 07:04:34;;;;;;;3.97;3.67;;;16.60;64.60;;;;;;5064848;28;45818;-68
2022/01/13 07:07:03;;;;;;;4.33;4.03;;;16.50;64.70;;;;;;5065468;28;44053;-69
2022/01/13 07:09:30;;;;;;;4.27;3.93;;;16.40;64.80;;;;;;5066258;28;44004;-68
2022/01/13 07:11:58;;;;;;;4.43;4.13;;;16.40;65.00;;;;;;5066495;28;43905;-68
2022/01/13 07:14:29;;;;;;;3.77;3.57;;;16.30;65.10;;;;;;5066199;28;44058;-68
2022/01/13 07:17:00;;;;;;;4.10;3.90;;;16.30;65.30;;;;;;5065944;28;44096;-68
2022/01/13 07:19:29;;;;;;;3.80;3.50;;;16.30;65.40;;;;;;5066188;28;44046;-68
2022/01/13 07:21:57;;;;;;;4.20;3.77;;;16.30;65.50;;;;;;5066456;28;43841;-68
2022/01/13 07:24:25;;;;;;;3.77;3.47;;;16.30;65.60;;;;;;5065840;28;44058;-68
2022/01/13 07:26:53;;;;;;;4.00;3.77;;;16.30;65.70;;;;;;5065770;28;44006;-68
2022/01/13 07:29:21;;;;;;;3.37;3.27;;;16.30;65.70;;;;;;5065699;28;43977;-68
2022/01/13 07:31:49;;;;;;;3.80;3.60;;;16.40;65.40;;;;;;5064622;28;44229;-68
2022/01/13 07:34:17;;;;;;;3.63;3.47;;;16.40;65.00;;;;;;5064001;28;45854;-68
2022/01/13 07:36:46;;;;;;;3.57;3.37;;;16.40;64.80;;;;;;5068807;28;44003;-68
2022/01/13 07:39:14;;;;;;;3.80;3.50;;;16.40;64.90;;;;;;5068984;28;43980;-68
2022/01/13 07:41:42;;;;;;;3.77;3.57;;;16.40;65.00;;;;;;5069307;28;44023;-68
2022/01/13 07:44:17;;;;;;;3.67;3.57;;;16.40;65.10;;;;;;5067330;28;46654;-69
2022/01/13 07:46:45;;;;;;;3.90;3.60;;;16.40;65.20;;;;;;5068672;28;43317;-69
2022/01/13 07:49:13;;;;;;;3.40;3.20;;;16.30;65.20;;;;;;5068878;28;43359;-68
2022/01/13 07:51:41;;;;;;;4.00;3.70;;;16.30;66.00;;;;;;5061078;28;44247;-68
2022/01/13 07:54:10;;;;;;;3.83;3.53;;;16.30;65.40;;;;;;5062139;28;43988;-68
2022/01/13 07:56:40;;;;;;;3.80;3.50;;;16.30;65.40;;;;;;5062104;28;43912;-68
2022/01/13 07:59:08;;;;;;;4.27;3.97;;;16.30;65.50;;;;;;5067469;28;43950;-68
2022/01/13 08:01:36;;;;;;;3.83;3.53;;;16.30;65.50;;;;;;5069232;28;43896;-69
2022/01/13 08:04:05;;;;;;;3.77;3.57;;;16.20;65.40;;;;;;5069134;28;44402;-69
2022/01/13 08:06:33;;;;;;;3.70;3.40;;;16.20;65.60;;;;;;5067588;28;43884;-68
2022/01/13 08:09:01;;;;;;;3.90;3.70;;;16.20;65.80;;;;;;5068765;28;43939;-68
2022/01/13 08:11:30;;;;;;;3.43;3.27;;;16.30;65.70;;;;;;5067357;28;44280;-69
2022/01/13 08:13:58;;;;;;;3.80;3.50;;;16.40;65.30;;;;;;5068300;28;43958;-68
2022/01/13 08:16:32;;;;;;;3.80;3.50;;;16.60;65.00;;;;;;5068167;28;43979;-68
2022/01/13 08:21:45;;;;;;;3.10;2.90;;;16.70;64.20;;;;;;5068915;28;43966;-69
2022/01/13 08:24:13;;;;;;;3.50;3.30;;;16.70;64.20;;;;;;5068092;28;43961;-68
2022/01/13 08:26:42;;;;;;;3.43;3.23;;;16.60;64.40;;;;;;5068173;28;43855;-68
2022/01/13 08:29:10;;;;;;;3.47;3.27;;;16.50;64.50;;;;;;5068090;28;43416;-68
2022/01/13 08:31:38;;;;;;;3.60;3.40;;;16.50;64.70;;;;;;5068885;28;44130;-68
2022/01/13 08:34:07;;;;;;;3.87;3.67;;;16.50;64.80;;;;;;5068218;28;45043;-68
2022/01/13 08:36:35;;;;;;;3.40;3.27;;;16.40;64.90;;;;;;5068011;28;43904;-68
2022/01/13 08:39:03;;;;;;;3.40;3.20;;;16.40;65.10;;;;;;5067980;28;43858;-68
2022/01/13 08:41:31;;;;;;;3.90;3.70;;;16.40;65.20;;;;;;5068372;28;43841;-69
2022/01/13 08:44:00;;;;;;;3.47;3.27;;;16.30;65.20;;;;;;5066122;28;44133;-68
2022/01/13 08:46:28;;;;;;;3.23;3.03;;;16.30;65.20;;;;;;5066842;28;43918;-68
2022/01/13 08:48:56;;;;;;;3.40;3.20;;;16.30;65.40;;;;;;5066334;28;43992;-68
2022/01/13 08:51:24;;;;;;;3.10;3.00;;;16.30;65.50;;;;;;5068251;28;44236;-68
2022/01/13 08:53:52;;;;;;;3.00;2.90;;;16.40;65.20;;;;;;5067601;28;45132;-68
2022/01/13 08:56:23;;;;;;;3.63;3.43;;;16.40;64.90;;;;;;5066109;28;44500;-68
2022/01/13 08:58:51;;;;;;;3.40;3.20;;;16.40;64.80;;;;;;5067796;28;43938;-68
2022/01/13 09:01:20;;;;;;;3.00;2.90;;;16.40;65.00;;;;;;5068060;28;43975;-69
2022/01/13 09:03:48;;;;;;;3.20;3.00;;;16.40;65.00;;;;;;5066201;28;46650;-69
2022/01/13 09:06:16;;;;;;;3.33;3.23;;;16.30;65.10;;;;;;5065728;28;44900;-68
2022/01/13 09:08:44;;;;;;;2.97;2.87;;;16.30;65.30;;;;;;5068007;28;43870;-68
2022/01/13 09:11:12;;;;;;;3.30;3.20;;;16.30;65.30;;;;;;5067884;28;43834;-68
2022/01/13 09:13:40;;;;;;;3.50;3.30;;;16.30;65.40;;;;;;5067181;28;45104;-68
2022/01/13 09:16:14;;;;;;;3.40;3.20;;;16.20;66.20;;;;;;5066244;28;43361;-69
2022/01/13 09:19:07;;;;;;;3.10;2.93;;;16.20;65.60;;;;;;5067435;28;43415;-68
2022/01/13 09:21:37;;;;;;;3.60;3.40;;;16.20;65.60;;;;;;5068122;28;44016;-68
2022/01/13 09:24:06;;;;;;;3.13;3.03;;;16.20;65.70;;;;;;5067340;28;43971;-67
2022/01/13 09:26:35;;;;;;;3.20;3.10;;;16.20;65.70;;;;;;5067672;28;43990;-69
2022/01/13 09:29:04;;;;;;;3.07;2.97;;;16.20;65.90;;;;;;5065641;28;43960;-69
2022/01/13 09:31:32;;;;;;;2.97;2.87;;;16.30;65.80;;;;;;5066290;28;44213;-68
2022/01/13 09:34:02;;;;;;;3.23;3.03;;;16.40;65.40;;;;;;5067206;28;43994;-68
2022/01/13 09:36:30;;;;;;;3.30;3.20;;;16.50;64.90;;;;;;5067142;28;44003;-68
2022/01/13 09:38:58;;;;;;;3.43;3.23;;;16.60;64.40;;;;;;5065551;28;44022;-69
2022/01/13 09:41:27;;;;;;;3.10;3.00;;;16.70;64.20;;;;;;5067512;28;44046;-69
2022/01/13 09:43:55;;;;;;;3.10;3.00;;;16.70;64.20;;;;;;5066511;28;45117;-68
2022/01/13 09:46:26;;;;;;;3.20;3.10;;;16.60;64.30;;;;;;5066817;28;43919;-68
2022/01/13 09:48:54;;;;;;;2.97;2.87;;;16.50;64.50;;;;;;5067084;28;43305;-69
2022/01/13 09:51:25;;;;;;;3.17;3.07;;;16.50;64.70;;;;;;5067228;28;43442;-68
2022/01/13 09:53:53;;;;;;;2.80;2.70;;;16.40;64.80;;;;;;5066950;28;44037;-68
2022/01/13 09:56:21;;;;;;;3.47;3.30;;;16.40;64.90;;;;;;5066955;28;43389;-68
2022/01/13 09:58:49;;;;;;;3.10;3.00;;;16.40;65.10;;;;;;5066363;28;44015;-68
2022/01/13 10:01:17;;;;;;;3.00;2.90;;;16.30;65.10;;;;;;5067250;28;44071;-69
2022/01/13 10:03:45;;;;;;;3.23;3.03;;;16.30;65.30;;;;;;5066673;28;43916;-68
2022/01/13 10:06:14;;;;;;;3.50;3.30;;;16.30;65.40;;;;;;5065923;28;43964;-68
2022/01/13 10:08:45;;;;;;;3.03;2.93;;;16.30;65.60;;;;;;5066747;28;44026;-69
2022/01/13 10:11:32;;;;;;;3.20;3.10;;;16.30;65.80;;;;;;5067191;28;43825;-69
2022/01/13 10:14:10;;;;;;;2.90;2.80;;;16.40;65.40;;;;;;5065169;28;46126;-68
2022/01/13 10:16:45;;;;;;;2.90;2.80;;;16.40;65.00;;;;;;5066831;28;43988;-68
2022/01/13 10:19:30;;;;;;;3.13;3.03;;;16.40;65.00;;;;;;5066434;28;44011;-68
2022/01/13 10:22:04;;;;;;;2.70;2.60;;;16.40;65.10;;;;;;5066986;28;44043;-69
2022/01/13 10:24:34;;;;;;;2.97;2.87;;;16.40;65.20;;;;;;5060117;28;43939;-68
2022/01/13 10:27:04;;;;;;;3.60;3.43;;;16.30;65.20;;;;;;5064935;28;43852;-68
2022/01/13 10:29:46;;;;;;;2.83;2.73;;;16.30;65.40;;;;;;5066452;28;43934;-69
2022/01/13 10:32:16;;;;;;;2.60;2.50;;;16.30;65.50;;;;;;5067091;28;43944;-68
2022/01/13 10:34:45;;;;;;;3.07;2.97;;;16.30;65.60;;;;;;5066365;28;43752;-68
2022/01/13 10:37:14;;;;;;;2.77;2.67;;;16.20;65.50;;;;;;5065914;28;44127;-68
2022/01/13 10:39:57;;;;;;;3.00;2.90;;;16.20;65.60;;;;;;5066118;28;44133;-68
2022/01/13 10:43:11;;;;;;;2.90;2.80;;;16.20;65.60;;;;;;5066695;28;44333;-68
2022/01/13 10:45:41;;;;;;;3.10;3.00;;;16.20;65.60;;;;;;5065805;28;44007;-69
2022/01/13 10:48:10;;;;;;;3.13;3.03;;;16.20;65.70;;;;;;5064664;28;44400;-68
2022/01/13 10:50:40;;;;;;;2.87;2.77;;;16.20;65.80;;;;;;5064901;28;43768;-69
2022/01/13 10:53:09;;;;;;;3.20;3.10;;;16.30;65.80;;;;;;5066510;28;43996;-68
2022/01/13 10:55:41;;;;;;;3.03;2.93;;;16.40;65.40;;;;;;5065871;28;43964;-68
2022/01/13 10:58:12;;;;;;;2.83;2.73;;;16.60;65.00;;;;;;5065897;28;44019;-69
2022/01/13 11:00:40;;;;;;;3.00;2.90;;;16.60;64.50;;;;;;5059299;28;43948;-68
2022/01/13 11:03:10;;;;;;;2.93;2.83;;;16.60;64.30;;;;;;5059929;28;44210;-69
2022/01/13 11:05:40;;;;;;;2.80;2.70;;;16.60;64.30;;;;;;5059759;28;45785;-68
2022/01/13 11:08:09;;;;;;;2.77;2.67;;;16.60;64.60;;;;;;5065643;28;44213;-69
2022/01/13 11:10:40;;;;;;;3.00;2.90;;;16.50;64.80;;;;;;5068334;28;43493;-68
2022/01/13 11:13:16;;;;;;;3.00;2.90;;;16.50;64.80;;;;;;5070390;28;43992;-68
2022/01/13 11:15:45;;;;;;;2.97;2.87;;;16.40;65.00;;;;;;5069695;28;44043;-69
2022/01/13 11:18:13;;;;;;;2.77;2.67;;;16.40;65.20;;;;;;5069141;28;44126;-67
2022/01/13 11:20:42;;;;;;;2.93;2.83;;;16.30;65.30;;;;;;5069264;28;44048;-67
2022/01/13 11:23:09;;;;;;;2.63;2.53;;;16.30;65.40;;;;;;5069645;28;43924;-67
2022/01/13 11:25:39;;;;;;;2.80;2.70;;;16.30;65.50;;;;;;5069243;28;44079;-68
2022/01/13 11:28:07;;;;;;;2.57;2.57;;;16.30;65.60;;;;;;5069283;28;43924;-68
2022/01/13 11:30:35;;;;;;;2.90;2.80;;;16.30;65.80;;;;;;5067880;28;43926;-67
2022/01/13 11:33:02;;;;;;;3.20;3.10;;;16.30;65.70;;;;;;5069552;28;43955;-68
2022/01/13 11:35:33;;;;;;;2.90;2.80;;;16.40;65.40;;;;;;5068941;28;43921;-68
2022/01/13 11:38:02;;;;;;;3.17;3.07;;;16.40;65.10;;;;;;5068997;28;44136;-69
2022/01/13 11:40:40;;;;;;;2.80;2.70;;;16.40;65.10;;;;;;5069028;28;43539;-67
2022/01/13 11:43:19;;;;;;;2.77;2.67;;;16.40;65.10;;;;;;5069866;28;43945;-67
2022/01/13 11:45:47;;;;;;;3.00;2.90;;;16.40;65.20;;;;;;5068677;28;43742;-69
2022/01/13 11:48:18;;;;;;;2.97;2.87;;;16.30;65.20;;;;;;5067292;28;44530;-69
2022/01/13 11:50:49;;;;;;;3.03;2.93;;;16.30;65.40;;;;;;5069386;28;44071;-69
2022/01/13 11:53:25;;;;;;;2.80;2.70;;;16.30;65.40;;;;;;5069378;28;43411;-69
2022/01/13 11:55:57;;;;;;;2.73;2.63;;;16.30;65.50;;;;;;5067006;28;46032;-68
2022/01/13 11:58:46;;;;;;;3.00;2.90;;;16.30;65.60;;;;;;5068185;28;44078;-68
2022/01/13 12:01:19;;;;;;;2.50;2.40;;;16.20;65.60;;;;;;5068700;28;43948;-69
2022/01/13 12:03:49;;;;;;;2.47;2.47;;;16.20;65.60;;;;;;5069272;28;43473;-68
2022/01/13 12:06:36;;;;;;;3.00;2.90;;;16.20;65.70;;;;;;5067748;28;45143;-68
2022/01/13 12:09:04;;;;;;;2.80;2.70;;;16.20;65.70;;;;;;5067170;28;45164;-68
2022/01/13 12:11:50;;;;;;;2.90;2.80;;;16.20;65.90;;;;;;5068557;28;43461;-68
2022/01/13 12:14:39;;;;;;;2.90;2.80;;;16.30;65.80;;;;;;5069041;28;43388;-68
2022/01/13 12:17:12;;;;;;;2.70;2.50;;;16.40;65.30;;;;;;5068616;28;43583;-68
2022/01/13 12:19:44;;;;;;;2.90;2.80;;;16.60;64.90;;;;;;5068296;28;43827;-68
2022/01/13 12:22:20;;;;;;;2.87;2.77;;;16.60;64.50;;;;;;5067181;28;44068;-69
2022/01/13 12:24:50;;;;;;;2.80;2.70;;;16.60;64.40;;;;;;5068757;28;44106;-68
2022/01/13 12:27:20;;;;;;;2.83;2.73;;;16.60;64.50;;;;;;5067921;28;43908;-68
2022/01/13 12:29:50;;;;;;;2.87;2.87;;;16.50;64.80;;;;;;5068255;28;43889;-68
2022/01/13 12:32:38;;;;;;;2.37;2.37;;;16.50;64.80;;;;;;5068253;28;43420;-68
2022/01/13 12:35:07;;;;;;;2.83;2.73;;;16.40;64.90;;;;;;5068885;28;44389;-69
2022/01/13 12:37:38;;;;;;;2.47;2.47;;;16.40;65.20;;;;;;5068090;28;43947;-69
2022/01/13 12:40:17;;;;;;;2.90;2.80;;;16.40;65.30;;;;;;5068297;28;43938;-69
2022/01/13 12:42:52;;;;;;;2.80;2.70;;;16.30;65.30;;;;;;5066518;28;43359;-69
2022/01/13 12:45:32;;;;;;;2.70;2.60;;;16.30;65.40;;;;;;5068344;28;43345;-69
2022/01/13 12:48:03;;;;;;;2.90;2.70;;;16.30;65.40;;;;;;5067879;28;44038;-68
2022/01/13 12:50:33;;;;;;;2.83;2.73;;;16.30;65.50;;;;;;5067981;28;43851;-68
2022/01/13 12:53:14;;;;;;;2.57;2.47;;;16.30;65.70;;;;;;5067866;28;44045;-68
2022/01/13 12:55:44;;;;;;;2.40;2.40;;;16.40;65.40;;;;;;5060461;28;43582;-68
2022/01/13 12:58:13;;;;;;;2.37;2.37;;;16.40;65.00;;;;;;5061112;28;44123;-68
2022/01/13 13:01:00;;;;;;;2.40;2.30;;;16.50;65.00;;;;;;5067512;28;43932;-68
2022/01/13 13:03:28;;;;;;;2.37;2.27;;;16.40;65.00;;;;;;5067703;28;43911;-68
2022/01/13 13:05:57;;;;;;;2.77;2.67;;;16.40;65.10;;;;;;5067813;28;43964;-68
2022/01/13 13:08:26;;;;;;;2.47;2.37;;;16.30;65.20;;;;;;5067805;28;43968;-69
2022/01/13 13:10:57;;;;;;;2.50;2.40;;;16.30;65.40;;;;;;5067538;28;43385;-67
2022/01/13 13:13:27;;;;;;;2.40;2.40;;;16.30;65.40;;;;;;5066164;28;44046;-69
2022/01/13 13:15:57;;;;;;;2.40;2.40;;;16.20;65.50;;;;;;5066431;28;43963;-68